createdAt,value
2023-04-09T00:00:04.446Z,11.05
2023-04-09T00:02:39.476Z,10.99
2023-04-09T00:05:07.410Z,11.04
2023-04-09T00:07:34.176Z,11.09
2023-04-09T00:10:00.838Z,11.01
2023-04-09T00:12:27.481Z,10.98
2023-04-09T00:14:54.099Z,11.07
2023-04-09T00:17:20.750Z,10.81
2023-04-09T00:19:48.080Z,10.56
2023-04-09T00:22:15.480Z,10.67
2023-04-09T00:24:42.099Z,10.65
2023-04-09T00:27:08.786Z,10.84
2023-04-09T00:29:35.378Z,10.98
2023-04-09T00:32:02.147Z,11.03
2023-04-09T00:34:28.967Z,10.95
2023-04-09T00:36:55.758Z,10.94
2023-04-09T00:39:22.368Z,10.83
2023-04-09T00:41:48.934Z,10.90
2023-04-09T00:44:15.716Z,10.84
2023-04-09T00:46:42.299Z,10.81
2023-04-09T00:49:08.974Z,10.97
2023-04-09T00:51:35.932Z,10.91
2023-04-09T00:54:02.656Z,10.68
2023-04-09T00:56:30.096Z,10.82
2023-04-09T00:58:57.210Z,10.79
2023-04-09T01:01:23.959Z,10.65
2023-04-09T01:03:51.141Z,10.70
2023-04-09T01:06:27.820Z,10.70
2023-04-09T01:09:06.263Z,10.61
2023-04-09T01:11:43.437Z,10.55
2023-04-09T01:14:32.912Z,10.64
2023-04-09T01:17:11.514Z,10.69
2023-04-09T01:19:54.765Z,10.44
2023-04-09T01:22:32.591Z,10.62
2023-04-09T01:25:27.147Z,10.57
2023-04-09T01:28:17.469Z,10.57
2023-04-09T01:30:49.293Z,10.62
2023-04-09T01:33:18.364Z,10.63
2023-04-09T01:35:47.344Z,10.74
2023-04-09T01:38:16.449Z,10.67
2023-04-09T01:40:43.662Z,10.47
2023-04-09T01:43:12.726Z,10.48
2023-04-09T01:45:40.546Z,10.48
2023-04-09T01:48:07.568Z,10.44
2023-04-09T01:50:35.426Z,10.47
2023-04-09T01:53:02.731Z,10.42
2023-04-09T01:55:29.372Z,10.35
2023-04-09T01:57:56.006Z,10.38
2023-04-09T02:00:24.944Z,10.33
2023-04-09T02:03:22.801Z,10.19
2023-04-09T02:05:57.454Z,10.47
2023-04-09T02:08:26.300Z,10.36
2023-04-09T02:10:58.236Z,10.34
2023-04-09T02:13:27.036Z,10.37
2023-04-09T02:15:56.666Z,10.43
2023-04-09T02:18:28.987Z,10.37
2023-04-09T02:20:57.284Z,10.33
2023-04-09T02:23:24.515Z,10.37
2023-04-09T02:25:52.495Z,10.32
2023-04-09T02:28:19.514Z,10.28
2023-04-09T02:30:46.170Z,10.32
2023-04-09T02:33:12.821Z,10.34
2023-04-09T02:35:39.539Z,10.05
2023-04-09T02:38:08.181Z,10.06
2023-04-09T02:40:34.839Z,10.16
2023-04-09T02:43:01.446Z,9.97
2023-04-09T02:45:28.106Z,9.81
2023-04-09T02:47:54.829Z,9.82
2023-04-09T02:50:21.650Z,9.96
2023-04-09T02:52:51.854Z,9.97
2023-04-09T02:55:20.205Z,10.03
2023-04-09T02:57:46.884Z,9.98
2023-04-09T03:00:13.894Z,9.94
2023-04-09T03:02:40.897Z,10.03
2023-04-09T03:05:08.161Z,9.98
2023-04-09T03:07:34.799Z,10.03
2023-04-09T03:10:01.516Z,9.89
2023-04-09T03:12:29.737Z,10.02
2023-04-09T03:14:56.419Z,9.99
2023-04-09T03:17:25.782Z,9.80
2023-04-09T03:19:53.389Z,9.85
2023-04-09T03:22:20.982Z,9.85
2023-04-09T03:24:51.348Z,9.81
2023-04-09T03:27:18.686Z,9.78
2023-04-09T03:29:49.374Z,9.74
2023-04-09T03:32:17.894Z,9.72
2023-04-09T03:34:45.771Z,9.69
2023-04-09T03:37:13.301Z,9.38
2023-04-09T03:39:40.283Z,9.12
2023-04-09T03:42:08.031Z,9.38
2023-04-09T03:44:43.562Z,9.42
2023-04-09T03:47:14.110Z,9.44
2023-04-09T03:49:40.778Z,9.41
2023-04-09T03:52:26.631Z,9.49
2023-04-09T03:55:00.499Z,9.40
2023-04-09T03:57:28.332Z,9.39
2023-04-09T03:59:55.745Z,9.38
2023-04-09T04:02:26.749Z,9.45
2023-04-09T04:05:00.307Z,9.51
2023-04-09T04:07:32.612Z,9.48
2023-04-09T04:10:06.822Z,9.39
2023-04-09T04:12:33.753Z,9.30
2023-04-09T04:15:05.608Z,9.30
2023-04-09T04:17:58.276Z,9.40
2023-04-09T04:20:39.027Z,9.38
2023-04-09T04:23:09.861Z,9.34
2023-04-09T04:25:42.563Z,9.22
2023-04-09T04:28:12.768Z,9.32
2023-04-09T04:30:42.764Z,9.37
2023-04-09T04:33:10.247Z,9.30
2023-04-09T04:35:45.571Z,9.28
2023-04-09T04:38:28.972Z,9.13
2023-04-09T04:40:57.101Z,9.21
2023-04-09T04:43:24.113Z,9.30
2023-04-09T04:45:55.184Z,9.26
2023-04-09T04:48:24.835Z,8.96
2023-04-09T04:50:59.871Z,8.88
2023-04-09T04:53:32.057Z,8.95
2023-04-09T04:56:03.663Z,9.09
2023-04-09T04:58:31.437Z,9.07
2023-04-09T05:01:00.903Z,9.19
2023-04-09T05:03:28.419Z,9.27
2023-04-09T05:06:09.024Z,9.41
2023-04-09T05:08:41.792Z,9.50
2023-04-09T05:11:11.922Z,9.20
2023-04-09T05:13:39.031Z,9.22
2023-04-09T05:16:16.589Z,9.41
2023-04-09T05:18:44.415Z,9.28
2023-04-09T05:21:11.180Z,9.27
2023-04-09T05:23:39.012Z,9.14
2023-04-09T05:26:05.893Z,9.40
2023-04-09T05:28:50.477Z,9.43
2023-04-09T05:31:19.511Z,9.34
2023-04-09T05:33:53.431Z,9.49
2023-04-09T05:36:25.928Z,9.62
2023-04-09T05:38:52.965Z,9.50
2023-04-09T05:41:20.367Z,9.44
2023-04-09T05:44:00.970Z,9.58
2023-04-09T05:46:29.177Z,9.58
2023-04-09T05:48:56.706Z,9.58
2023-04-09T05:51:25.455Z,9.60
2023-04-09T05:53:52.433Z,9.74
2023-04-09T05:56:19.450Z,9.79
2023-04-09T05:58:51.439Z,9.71
2023-04-09T06:01:18.194Z,9.73
2023-04-09T06:03:45.284Z,9.72
2023-04-09T06:06:13.398Z,9.85
2023-04-09T06:08:40.083Z,9.76
2023-04-09T06:11:10.465Z,9.83
2023-04-09T06:13:37.678Z,9.80
2023-04-09T06:16:06.075Z,9.77
2023-04-09T06:18:33.269Z,9.73
2023-04-09T06:21:07.936Z,9.66
2023-04-09T06:23:37.126Z,9.70
2023-04-09T06:26:03.721Z,9.68
2023-04-09T06:28:31.512Z,9.65
2023-04-09T06:30:58.849Z,9.76
2023-04-09T06:33:25.947Z,9.87
2023-04-09T06:35:52.738Z,9.80
2023-04-09T06:38:19.427Z,9.93
2023-04-09T06:40:46.090Z,9.62
2023-04-09T06:43:12.805Z,9.72
2023-04-09T06:45:48.403Z,9.96
2023-04-09T06:48:15.003Z,9.82
2023-04-09T06:50:41.650Z,9.89
2023-04-09T06:53:08.469Z,10.08
2023-04-09T06:55:38.468Z,10.34
2023-04-09T06:58:05.701Z,10.32
2023-04-09T07:00:32.346Z,10.40
2023-04-09T07:02:59.267Z,10.36
2023-04-09T07:05:26.291Z,10.46
2023-04-09T07:07:53.097Z,10.58
2023-04-09T07:10:19.731Z,10.74
2023-04-09T07:12:46.362Z,11.08
2023-04-09T07:15:13.116Z,10.87
2023-04-09T07:17:39.878Z,10.98
2023-04-09T07:20:06.993Z,10.76
2023-04-09T07:22:33.679Z,10.88
2023-04-09T07:25:00.754Z,11.09
2023-04-09T07:27:28.655Z,11.05
2023-04-09T07:29:56.946Z,11.07
2023-04-09T07:32:24.528Z,11.51
2023-04-09T07:34:52.784Z,11.95
2023-04-09T07:37:20.272Z,12.58
2023-04-09T07:39:47.699Z,12.67
2023-04-09T07:42:14.458Z,12.36
2023-04-09T07:44:41.160Z,12.83
2023-04-09T07:47:08.421Z,12.83
2023-04-09T07:49:36.922Z,12.28
2023-04-09T07:52:04.551Z,12.07
2023-04-09T07:54:31.735Z,12.43
2023-04-09T07:56:59.276Z,13.03
2023-04-09T07:59:27.565Z,13.47
2023-04-09T08:01:54.400Z,13.20
2023-04-09T08:04:21.388Z,12.41
2023-04-09T08:06:49.969Z,12.57
2023-04-09T08:09:20.724Z,12.32
2023-04-09T08:11:48.687Z,12.46
2023-04-09T08:14:16.775Z,12.29
2023-04-09T08:16:47.061Z,12.47
2023-04-09T08:19:15.789Z,12.96
2023-04-09T08:21:43.350Z,13.30
2023-04-09T08:24:13.142Z,13.52
2023-04-09T08:26:41.101Z,13.41
2023-04-09T08:29:08.883Z,13.33
2023-04-09T08:31:37.405Z,13.88
2023-04-09T08:34:04.503Z,13.27
2023-04-09T08:36:32.419Z,13.11
2023-04-09T08:39:00.546Z,13.50
2023-04-09T08:41:29.361Z,13.85
2023-04-09T08:43:58.683Z,14.01
2023-04-09T08:46:26.645Z,14.22
2023-04-09T08:48:53.876Z,14.08
2023-04-09T08:51:25.081Z,14.47
2023-04-09T08:54:04.770Z,14.50
2023-04-09T08:56:33.162Z,14.45
2023-04-09T08:59:00.458Z,14.40
2023-04-09T09:01:34.978Z,14.99
2023-04-09T09:04:09.525Z,14.90
2023-04-09T09:06:40.390Z,14.11
2023-04-09T09:09:14.431Z,13.72
2023-04-09T09:11:43.011Z,13.17
2023-04-09T09:14:12.011Z,13.22
2023-04-09T09:16:46.332Z,13.83
2023-04-09T09:19:33.452Z,14.16
2023-04-09T09:22:09.211Z,14.28
2023-04-09T09:24:50.721Z,14.62
2023-04-09T09:27:40.505Z,15.04
2023-04-09T09:30:10.643Z,15.25
2023-04-09T09:32:38.068Z,15.40
2023-04-09T09:35:07.204Z,15.29
2023-04-09T09:37:34.777Z,15.25
2023-04-09T09:40:02.122Z,14.39
2023-04-09T09:42:41.054Z,13.98
2023-04-09T09:45:18.291Z,13.87
2023-04-09T09:47:47.374Z,13.84
2023-04-09T09:50:14.183Z,13.96
2023-04-09T09:52:45.886Z,13.75
2023-04-09T09:55:35.914Z,13.91
2023-04-09T09:58:34.268Z,13.54
2023-04-09T10:01:02.791Z,13.56
2023-04-09T10:03:32.079Z,13.46
2023-04-09T10:06:01.424Z,13.60
2023-04-09T10:08:30.119Z,13.72
2023-04-09T10:10:56.972Z,13.82
2023-04-09T10:13:31.476Z,13.77
2023-04-09T10:15:59.238Z,14.03
2023-04-09T10:18:26.352Z,13.85
2023-04-09T10:21:05.777Z,14.07
2023-04-09T10:23:42.825Z,13.89
2023-04-09T10:26:10.302Z,13.81
2023-04-09T10:28:38.307Z,13.81
2023-04-09T10:31:06.868Z,13.73
2023-04-09T10:33:36.051Z,13.63
2023-04-09T10:36:10.403Z,13.43
2023-04-09T10:38:45.742Z,13.59
2023-04-09T10:41:22.559Z,13.41
2023-04-09T10:43:49.441Z,13.47
2023-04-09T10:46:45.961Z,13.77
2023-04-09T10:49:21.509Z,13.68
2023-04-09T10:52:12.619Z,13.97
2023-04-09T10:54:45.530Z,13.89
2023-04-09T10:57:22.203Z,14.07
2023-04-09T10:59:53.726Z,14.04
2023-04-09T11:02:39.154Z,13.71
2023-04-09T11:05:17.987Z,13.87
2023-04-09T11:07:47.469Z,13.91
2023-04-09T11:10:14.086Z,14.13
2023-04-09T11:12:41.179Z,14.11
2023-04-09T11:15:16.481Z,14.40
2023-04-09T11:17:43.191Z,14.41
2023-04-09T11:20:10.883Z,14.50
2023-04-09T11:22:38.274Z,14.48
2023-04-09T11:25:05.351Z,14.33
2023-04-09T11:27:37.129Z,14.46
2023-04-09T11:30:04.045Z,14.39
2023-04-09T11:32:31.604Z,14.34
2023-04-09T11:34:58.357Z,14.56
2023-04-09T11:37:25.141Z,14.45
2023-04-09T11:39:56.203Z,14.31
2023-04-09T11:42:25.732Z,14.01
2023-04-09T11:44:53.562Z,14.00
2023-04-09T11:47:21.152Z,14.37
2023-04-09T11:49:48.055Z,14.30
2023-04-09T11:52:16.585Z,14.13
2023-04-09T11:54:49.616Z,13.88
2023-04-09T11:57:16.975Z,14.11
2023-04-09T11:59:43.835Z,14.23
2023-04-09T12:02:10.675Z,14.07
2023-04-09T12:04:37.503Z,14.12
2023-04-09T12:07:09.589Z,14.10
2023-04-09T12:09:47.676Z,14.24
2023-04-09T12:12:19.144Z,14.05
2023-04-09T12:14:47.431Z,13.94
2023-04-09T12:17:14.151Z,14.43
2023-04-09T12:19:40.831Z,14.42
2023-04-09T12:22:07.519Z,13.74
2023-04-09T12:24:34.150Z,13.94
2023-04-09T12:27:01.573Z,14.11
2023-04-09T12:29:29.849Z,14.25
2023-04-09T12:31:56.637Z,14.27
2023-04-09T12:34:23.357Z,14.33
2023-04-09T12:36:49.988Z,14.43
2023-04-09T12:39:16.650Z,14.43
2023-04-09T12:41:43.412Z,14.73
2023-04-09T12:44:10.048Z,14.71
2023-04-09T12:46:37.146Z,14.71
2023-04-09T12:49:04.187Z,14.61
2023-04-09T12:51:30.977Z,14.70
2023-04-09T12:53:57.663Z,15.01
2023-04-09T12:56:24.798Z,15.03
2023-04-09T12:58:51.756Z,15.11
2023-04-09T13:01:18.725Z,14.85
2023-04-09T13:03:45.706Z,14.76
2023-04-09T13:06:12.728Z,14.65
2023-04-09T13:08:39.440Z,14.40
2023-04-09T13:11:06.157Z,14.50
2023-04-09T13:13:33.511Z,14.76
2023-04-09T13:16:00.174Z,15.05
2023-04-09T13:18:26.751Z,14.68
2023-04-09T13:20:53.330Z,14.75
2023-04-09T13:23:19.988Z,14.97
2023-04-09T13:25:46.605Z,14.97
2023-04-09T13:28:13.246Z,14.99
2023-04-09T13:30:39.931Z,15.06
2023-04-09T13:33:06.687Z,15.11
2023-04-09T13:35:33.356Z,15.20
2023-04-09T13:38:00.857Z,15.21
2023-04-09T13:40:27.510Z,15.29
2023-04-09T13:42:54.138Z,15.51
2023-04-09T13:45:23.667Z,15.48
2023-04-09T13:47:50.437Z,15.59
2023-04-09T13:50:17.140Z,15.56
2023-04-09T13:52:43.859Z,15.80
2023-04-09T13:55:11.995Z,15.69
2023-04-09T13:57:38.951Z,15.48
2023-04-09T14:00:07.254Z,15.44
2023-04-09T14:02:34.174Z,15.32
2023-04-09T14:05:02.448Z,15.26
2023-04-09T14:07:30.739Z,15.12
2023-04-09T14:09:57.521Z,15.25
2023-04-09T14:12:24.199Z,15.81
2023-04-09T14:14:51.558Z,15.80
2023-04-09T14:17:18.212Z,15.68
2023-04-09T14:19:44.817Z,16.08
2023-04-09T14:22:11.503Z,16.15
2023-04-09T14:24:40.128Z,16.38
2023-04-09T14:27:07.730Z,16.40
2023-04-09T14:29:35.079Z,16.41
2023-04-09T14:32:01.853Z,16.50
2023-04-09T14:34:31.138Z,16.69
2023-04-09T14:36:57.767Z,16.83
2023-04-09T14:39:24.637Z,16.56
2023-04-09T14:41:51.868Z,16.19
2023-04-09T14:44:18.528Z,16.23
2023-04-09T14:46:45.305Z,16.58
2023-04-09T14:49:12.073Z,16.51
2023-04-09T14:51:38.851Z,16.44
2023-04-09T14:54:05.965Z,16.48
2023-04-09T14:56:32.641Z,16.28
2023-04-09T14:58:59.919Z,16.25
2023-04-09T15:01:27.261Z,16.65
2023-04-09T15:03:55.161Z,17.17
2023-04-09T15:06:22.248Z,17.59
2023-04-09T15:08:49.214Z,17.59
2023-04-09T15:11:20.584Z,18.91
2023-04-09T15:13:47.135Z,22.60
2023-04-09T15:16:28.412Z,29.34
2023-04-09T15:18:57.664Z,29.81
2023-04-09T15:21:24.315Z,23.25
2023-04-09T15:23:51.127Z,21.06
2023-04-09T15:26:17.855Z,19.25
2023-04-09T15:28:46.053Z,18.31
2023-04-09T15:31:13.123Z,17.91
2023-04-09T15:33:42.730Z,17.29
2023-04-09T15:36:09.551Z,16.85
2023-04-09T15:38:36.375Z,16.82
2023-04-09T15:41:03.004Z,16.69
2023-04-09T15:43:29.675Z,16.47
2023-04-09T15:45:56.336Z,16.36
2023-04-09T15:48:23.022Z,16.20
2023-04-09T15:50:49.681Z,16.24
2023-04-09T15:53:16.546Z,16.25
2023-04-09T15:55:43.134Z,16.21
2023-04-09T15:58:09.842Z,16.27
2023-04-09T16:00:36.649Z,16.25
2023-04-09T16:03:03.418Z,16.27
2023-04-09T16:05:30.179Z,16.17
2023-04-09T16:07:59.081Z,15.99
2023-04-09T16:10:26.475Z,16.00
2023-04-09T16:12:53.093Z,16.09
2023-04-09T16:15:19.738Z,16.04
2023-04-09T16:17:46.375Z,16.12
2023-04-09T16:20:13.062Z,15.93
2023-04-09T16:22:39.793Z,15.80
2023-04-09T16:25:07.198Z,16.10
2023-04-09T16:27:34.727Z,15.86
2023-04-09T16:30:01.893Z,15.87
2023-04-09T16:32:30.670Z,15.95
2023-04-09T16:35:00.540Z,16.06
2023-04-09T16:39:54.603Z,16.04
2023-04-09T16:42:21.637Z,16.15
2023-04-09T16:44:49.241Z,15.99
2023-04-09T16:47:16.021Z,15.91
2023-04-09T16:49:42.640Z,15.83
2023-04-09T16:52:09.265Z,15.73
2023-04-09T16:54:36.148Z,15.60
2023-04-09T16:57:03.158Z,15.71
2023-04-09T16:59:29.814Z,15.83
2023-04-09T17:01:56.628Z,15.72
2023-04-09T17:04:23.426Z,15.61
2023-04-09T17:06:50.405Z,15.59
2023-04-09T17:09:17.052Z,15.56
2023-04-09T17:11:44.539Z,15.59
2023-04-09T17:14:11.478Z,15.54
2023-04-09T17:16:38.106Z,15.57
2023-04-09T17:19:04.954Z,15.53
2023-04-09T17:21:31.897Z,15.47
2023-04-09T17:23:58.609Z,15.32
2023-04-09T17:26:25.235Z,15.10
2023-04-09T17:28:52.363Z,15.09
2023-04-09T17:31:19.430Z,15.04
2023-04-09T17:33:49.220Z,15.08
2023-04-09T17:36:25.642Z,15.18
2023-04-09T17:38:52.713Z,15.33
2023-04-09T17:41:19.700Z,15.23
2023-04-09T17:43:46.664Z,15.29
2023-04-09T17:46:13.961Z,15.32
2023-04-09T17:48:41.647Z,15.21
2023-04-09T17:51:08.442Z,15.19
2023-04-09T17:53:35.320Z,15.08
2023-04-09T17:56:03.854Z,14.99
2023-04-09T17:58:30.695Z,15.05
2023-04-09T18:00:58.678Z,15.02
2023-04-09T18:03:25.909Z,15.04
2023-04-09T18:05:54.101Z,15.05
2023-04-09T18:08:21.139Z,14.94
2023-04-09T18:11:01.681Z,14.79
2023-04-09T18:13:38.172Z,14.68
2023-04-09T18:16:09.031Z,14.71
2023-04-09T18:18:35.784Z,14.63
2023-04-09T18:21:02.437Z,14.66
2023-04-09T18:23:29.972Z,14.60
2023-04-09T18:25:56.593Z,14.49
2023-04-09T18:28:23.214Z,14.40
2023-04-09T18:30:50.007Z,14.39
2023-04-09T18:33:16.683Z,14.55
2023-04-09T18:35:43.314Z,14.51
2023-04-09T18:38:09.996Z,14.25
2023-04-09T18:40:44.233Z,14.45
2023-04-09T18:43:12.341Z,14.38
2023-04-09T18:45:41.844Z,14.35
2023-04-09T18:48:08.885Z,14.29
2023-04-09T18:50:36.126Z,14.13
2023-04-09T18:53:03.633Z,14.08
2023-04-09T18:55:30.704Z,14.05
2023-04-09T18:57:57.499Z,13.95
2023-04-09T19:00:24.295Z,13.95
2023-04-09T19:02:51.566Z,13.89
2023-04-09T19:05:18.863Z,13.98
2023-04-09T19:07:45.616Z,13.90
2023-04-09T19:10:13.111Z,13.91
2023-04-09T19:12:46.566Z,13.78
2023-04-09T19:15:13.253Z,13.83
2023-04-09T19:17:40.347Z,13.71
2023-04-09T19:20:07.689Z,13.77
2023-04-09T19:22:34.435Z,13.89
2023-04-09T19:25:01.155Z,13.68
2023-04-09T19:27:29.652Z,13.71
2023-04-09T19:29:58.758Z,13.76
2023-04-09T19:32:25.578Z,13.68
2023-04-09T19:34:52.479Z,13.57
2023-04-09T19:37:19.175Z,13.50
2023-04-09T19:39:46.053Z,13.62
2023-04-09T19:42:12.810Z,13.47
2023-04-09T19:44:39.554Z,13.40
2023-04-09T19:47:06.327Z,13.42
2023-04-09T19:49:33.163Z,13.32
2023-04-09T19:52:00.287Z,13.26
2023-04-09T19:54:27.106Z,13.30
2023-04-09T19:56:53.759Z,13.15
2023-04-09T19:59:20.723Z,13.11
2023-04-09T20:01:48.578Z,13.00
2023-04-09T20:04:15.689Z,12.93
2023-04-09T20:06:43.225Z,12.90
2023-04-09T20:09:13.472Z,12.84
2023-04-09T20:11:40.425Z,12.81
2023-04-09T20:14:07.099Z,12.84
2023-04-09T20:16:33.877Z,12.73
2023-04-09T20:19:00.575Z,12.75
2023-04-09T20:21:27.959Z,12.81
2023-04-09T20:23:54.696Z,12.80
2023-04-09T20:26:21.436Z,12.75
2023-04-09T20:28:48.526Z,12.62
2023-04-09T20:31:15.306Z,12.65
2023-04-09T20:33:42.005Z,12.69
2023-04-09T20:36:16.703Z,12.61
2023-04-09T20:38:43.949Z,12.68
2023-04-09T20:41:11.077Z,12.63
2023-04-09T20:43:38.622Z,12.54
2023-04-09T20:46:06.264Z,12.65
2023-04-09T20:48:33.777Z,12.58
2023-04-09T20:51:02.164Z,12.41
2023-04-09T20:53:29.111Z,12.47
2023-04-09T20:55:55.812Z,12.51
2023-04-09T20:58:22.451Z,12.34
2023-04-09T21:00:49.201Z,12.43
2023-04-09T21:03:16.214Z,12.32
2023-04-09T21:05:43.146Z,12.52
2023-04-09T21:08:14.626Z,12.36
2023-04-09T21:10:41.326Z,12.29
2023-04-09T21:13:07.962Z,12.23
2023-04-09T21:15:34.643Z,12.22
2023-04-09T21:18:01.520Z,12.02
2023-04-09T21:20:28.293Z,12.02
2023-04-09T21:22:55.083Z,12.03
2023-04-09T21:25:21.819Z,11.92
2023-04-09T21:27:48.631Z,12.07
2023-04-09T21:30:15.418Z,12.12
2023-04-09T21:32:42.111Z,11.95
2023-04-09T21:35:09.016Z,12.07
2023-04-09T21:37:38.864Z,12.29
2023-04-09T21:40:06.269Z,12.30
2023-04-09T21:42:32.941Z,12.25
2023-04-09T21:45:01.284Z,12.17
2023-04-09T21:47:28.492Z,12.19
2023-04-09T21:49:55.933Z,12.10
2023-04-09T21:52:22.661Z,11.95
2023-04-09T21:54:49.280Z,11.96
2023-04-09T21:57:16.278Z,11.81
2023-04-09T21:59:43.422Z,11.64
2023-04-09T22:02:10.734Z,11.63
2023-04-09T22:04:37.750Z,11.64
2023-04-09T22:07:04.493Z,11.58
2023-04-09T22:09:31.483Z,11.58
2023-04-09T22:11:58.845Z,11.65
2023-04-09T22:14:29.517Z,11.72
2023-04-09T22:16:58.228Z,11.80
2023-04-09T22:19:26.167Z,11.76
2023-04-09T22:21:53.518Z,11.79
2023-04-09T22:24:26.842Z,11.59
2023-04-09T22:26:53.885Z,11.71
2023-04-09T22:29:20.803Z,11.50
2023-04-09T22:31:47.593Z,11.56
2023-04-09T22:34:21.232Z,11.57
2023-04-09T22:36:49.393Z,11.45
2023-04-09T22:39:16.314Z,11.33
2023-04-09T22:41:43.452Z,11.31
2023-04-09T22:44:10.491Z,11.34
2023-04-09T22:46:37.296Z,11.23
2023-04-09T22:49:05.535Z,11.24
2023-04-09T22:51:34.663Z,11.23
2023-04-09T22:54:02.325Z,11.36
2023-04-09T22:56:31.583Z,11.39
2023-04-09T22:58:58.506Z,11.37
2023-04-09T23:01:25.282Z,11.43
2023-04-09T23:03:52.092Z,11.51
2023-04-09T23:06:19.138Z,11.45
2023-04-09T23:08:46.429Z,11.55
2023-04-09T23:11:13.382Z,11.63
2023-04-09T23:13:40.448Z,11.51
2023-04-09T23:16:08.987Z,11.57
2023-04-09T23:18:36.496Z,11.25
2023-04-09T23:21:07.277Z,11.32
2023-04-09T23:23:34.605Z,11.21
2023-04-09T23:26:01.699Z,11.18
2023-04-09T23:28:28.772Z,11.31
2023-04-09T23:30:55.742Z,11.15
2023-04-09T23:33:22.871Z,11.25
2023-04-09T23:35:50.373Z,11.15
2023-04-09T23:38:17.128Z,11.10
2023-04-09T23:40:43.845Z,11.17
2023-04-09T23:43:11.163Z,11.33
2023-04-09T23:45:37.808Z,11.42
2023-04-09T23:48:06.058Z,11.20
2023-04-09T23:50:32.863Z,11.08
2023-04-09T23:53:03.277Z,10.89
2023-04-09T23:55:30.322Z,11.07
2023-04-09T23:57:56.962Z,10.96
